Abraham González International Airport
MMCS : rendu visible

Aérodrome :











RETROUVEZ-NOUS SUR...

 
LOGIN :

S'inscrire | Disclaimer

   EN    FR    IT 

 









Légende :    VFR   VFR Marginal   IFR   IFR Intensif   IFR Très Intensif
Visi : 
Plafond : 
>= 8 km
>= 3000ft
5 à 8 km
1000 à 3000 ft
1500m à 5 km
500 à 1000 ft
800 à 1500m
200 à 500 ft
< 800m
< 200 ft
Symboles :   Orages  Brouillard  Fortes neiges  Fortes précipitations  Vent > 20 kt






- Altitude de l'aérodrome : 3904 ft
- Code IATA : CJS


MMCS - Abraham González International

DERNIER METAR :
  • 011442Z 24006KT 10SM FEW080 SCT120 BKN220 19/M03 A2993 RMK SLP051 5//// 995 8/072

METARs EXPIRÉS :
  • 011341Z 15005KT 10SM FEW080 SCT120 OVC200 16/M03 A2994 RMK 8/072 BINOVC
  • 011305Z RTD 21005KT 10SM FEW080 SCT120 OVC200 17/M05 A2994 RMK 8/072 RTS

TAF TAF MMCS
Valide du 01 à 06h jusqu'au 02 à 06h UTC


010530Z 0106/0206 00000KT P6SM SCT050 BKN100 BKN250
FM011800 24010KT P6SM SCT050 SCT100 BKN250
FM020300 24005KT P6SM SCT100 BKN250



MET'MAP, la Météo Aéronautique d'un coup d'oeil ! - Copyright ORBIFLY Décembre 2007 - Disclaimer

ORBIFLY MET'MAP TEAM :

Programmation & Développement : Alexandra Zaïnal
Sur une idée originale de : Baudouin d'Aumeries
Assistance à la programmation : Marc-Olivier Méhu
Soutien technique & logistique : Manuel Goepfert

Contact : metmap@orbifly.com




SOURCES & CREDITS :

   NOAA       Earth
Advisory